Time;durP1;ratioP1;P1;durP2;ratioP2;P2;SDS_P1;SDS_P2;PMS_P1;PMS_P2;Temp;Humidity;BMP_temperature;BMP_pressure;BME280_temperature;BME280_humidity;BME280_pressure;Samples;Min_cycle;Max_cycle;Signal;HPM_P1;HPM_P2
2023/06/03 00:00:14;;;;;;;;;0.00;0.00;;;;;-146.67;31.34;74637.66;5022307;28;61952;-85
2023/06/03 00:02:41;;;;;;;;;0.00;0.00;;;;;-146.67;31.76;74639.66;5003752;28;62807;-85
2023/06/03 00:05:07;;;;;;;;;14.25;7.00;;;;;-146.67;32.36;74649.66;5019344;28;63444;-85
2023/06/03 00:07:33;;;;;;;;;0.00;0.00;;;;;-146.67;32.70;74677.59;4997004;28;62107;-86
2023/06/03 00:09:59;;;;;;;;;0.00;0.00;;;;;-146.67;32.43;74689.56;5020716;28;61939;-84
2023/06/03 00:12:24;;;;;;;;;0.00;0.00;;;;;-146.67;32.13;74699.56;5020751;28;62095;-84
2023/06/03 00:14:50;;;;;;;;;0.00;0.00;;;;;-146.67;32.91;74701.56;5002949;28;63577;-86
2023/06/03 00:17:15;;;;;;;;;0.00;0.00;;;;;-146.67;32.64;74711.53;5003082;28;61899;-85
2023/06/03 00:19:41;;;;;;;;;7.00;6.25;;;;;-146.67;32.69;74691.56;5021362;28;61927;-86
2023/06/03 00:22:08;;;;;;;;;6.75;6.25;;;;;-146.67;32.60;74697.56;5021575;28;62137;-84
2023/06/03 00:24:33;;;;;;;;;0.00;0.00;;;;;-146.67;32.35;74711.53;4997287;28;64754;-84
2023/06/03 00:26:59;;;;;;;;;8.00;6.00;;;;;-146.67;33.17;74737.50;5022738;28;61961;-85
2023/06/03 00:29:27;;;;;;;;;0.00;0.00;;;;;-146.67;32.96;74741.50;5022391;28;61808;-85
2023/06/03 00:31:52;;;;;;;;;0.00;0.00;;;;;-146.67;32.89;74737.50;5005974;28;61751;-85
2023/06/03 00:34:18;;;;;;;;;10.75;8.75;;;;;-146.67;33.23;74735.50;5004844;28;63800;-85
2023/06/03 00:36:43;;;;;;;;;13.25;10.75;;;;;-146.67;33.72;74757.47;5003560;28;62213;-85
2023/06/03 00:39:10;;;;;;;;;12.50;10.50;;;;;-146.67;33.51;74749.47;5017215;28;61967;-85
2023/06/03 00:41:35;;;;;;;;;15.75;13.50;;;;;-146.67;33.40;74735.50;5002974;28;61832;-86
2023/06/03 00:44:01;;;;;;;;;6.50;6.50;;;;;-146.67;33.06;74727.50;5004040;28;63881;-85
2023/06/03 00:46:27;;;;;;;;;0.00;0.00;;;;;-146.67;32.64;74723.50;5005318;28;62145;-85
2023/06/03 00:48:53;;;;;;;;;14.25;11.00;;;;;-146.67;33.31;74717.53;5022486;28;61932;-85
2023/06/03 00:51:20;;;;;;;;;0.00;0.00;;;;;-146.67;32.85;74703.56;5021583;28;61988;-85
2023/06/03 00:53:45;;;;;;;;;0.00;0.00;;;;;-146.67;32.63;74697.56;5003076;28;63757;-85
2023/06/03 00:56:17;;;;;;;;;12.75;11.00;;;;;-146.67;33.02;74713.53;5021283;28;61846;-85
2023/06/03 00:58:42;;;;;;;;;0.00;0.00;;;;;-146.67;33.35;74713.53;5005251;28;61913;-85
2023/06/03 01:01:08;;;;;;;;;7.25;6.50;;;;;-146.67;33.21;74701.56;5003487;28;61784;-85
2023/06/03 01:03:36;;;;;;;;;12.00;9.75;;;;;-146.67;33.02;74695.56;5019401;28;61953;-85
2023/06/03 01:06:27;;;;;;;;;0.00;0.00;;;;;-146.67;32.98;74691.56;5002471;28;61930;-86
2023/06/03 01:09:07;;;;;;;;;0.00;0.00;;;;;-146.67;32.90;74707.53;5018603;28;62338;-85
2023/06/03 01:11:52;;;;;;;;;6.00;6.00;;;;;-146.67;32.92;74699.56;5020293;28;61942;-85
2023/06/03 01:14:39;;;;;;;;;10.25;10.00;;;;;-146.67;32.77;74707.53;5017852;28;61856;-85
2023/06/03 01:17:09;;;;;;;;;0.00;0.00;;;;;-146.67;33.08;74695.56;5020171;28;61905;-86
2023/06/03 01:19:47;;;;;;;;;0.00;0.00;;;;;-146.67;33.01;74697.56;5020986;28;61816;-85
2023/06/03 01:22:15;;;;;;;;;11.00;8.00;;;;;-146.67;33.09;74679.59;5019749;28;62278;-85
2023/06/03 01:24:42;;;;;;;;;9.50;8.25;;;;;-146.67;33.11;74689.56;5020876;28;61855;-85
2023/06/03 01:27:09;;;;;;;;;13.50;9.00;;;;;-146.67;33.09;74697.56;5020496;28;61937;-84
2023/06/03 01:29:36;;;;;;;;;0.00;0.00;;;;;-146.67;32.97;74685.59;5021606;28;61968;-85
2023/06/03 01:32:02;;;;;;;;;13.75;12.25;;;;;-146.67;32.89;74685.59;5019529;28;61934;-85
2023/06/03 01:34:29;;;;;;;;;16.50;12.00;;;;;-146.67;32.95;74685.59;4999332;28;65179;-85
2023/06/03 01:36:56;;;;;;;;;7.25;6.50;;;;;-146.67;33.13;74691.56;5017298;28;62467;-84
2023/06/03 01:39:22;;;;;;;;;10.75;9.00;;;;;-146.67;32.98;74687.56;5001229;28;61884;-85
2023/06/03 01:41:49;;;;;;;;;9.75;9.75;;;;;-146.67;33.00;74701.56;5019137;28;62268;-86
2023/06/03 01:44:14;;;;;;;;;7.75;7.00;;;;;-146.67;32.91;74709.53;5019146;28;61876;-85
2023/06/03 01:46:40;;;;;;;;;0.00;0.00;;;;;-146.67;32.58;74697.56;5020477;28;61905;-84
2023/06/03 01:49:07;;;;;;;;;0.00;0.00;;;;;-146.67;32.67;74689.56;5018066;28;62007;-84
2023/06/03 01:51:33;;;;;;;;;17.00;13.25;;;;;-146.67;33.16;74693.56;5001705;28;61788;-85
2023/06/03 01:53:58;;;;;;;;;9.75;6.00;;;;;-146.67;32.73;74691.56;5018457;28;62212;-85
2023/06/03 01:56:24;;;;;;;;;0.00;0.00;;;;;-146.67;32.95;74707.53;5009838;28;62038;-86
2023/06/03 01:58:49;;;;;;;;;11.25;9.50;;;;;-146.67;33.40;74713.53;5022167;28;62090;-85
2023/06/03 02:01:15;;;;;;;;;15.75;12.75;;;;;-146.67;33.30;74723.50;5020742;28;61882;-86
2023/06/03 02:03:40;;;;;;;;;15.50;9.75;;;;;-146.67;33.48;74711.53;4999916;28;64514;-85
2023/06/03 02:06:06;;;;;;;;;11.75;9.00;;;;;-146.67;33.32;74711.53;5019322;28;61884;-84
2023/06/03 02:08:31;;;;;;;;;8.25;4.50;;;;;-146.67;33.12;74697.56;5018052;28;61954;-84
2023/06/03 02:10:57;;;;;;;;;14.75;12.00;;;;;-146.67;33.40;74697.56;5019473;28;61829;-85
2023/06/03 02:13:22;;;;;;;;;0.00;0.00;;;;;-146.67;32.78;74693.56;5018227;28;61934;-85
2023/06/03 02:15:48;;;;;;;;;0.00;0.00;;;;;-146.67;32.84;74689.56;5020519;28;61809;-85
2023/06/03 02:18:13;;;;;;;;;15.75;13.75;;;;;-146.67;33.13;74693.56;4999283;28;62095;-85
2023/06/03 02:20:38;;;;;;;;;15.75;13.00;;;;;-146.67;33.57;74715.53;5018875;28;61983;-84
2023/06/03 02:23:05;;;;;;;;;13.75;10.50;;;;;-146.67;33.35;74707.53;5009714;28;63793;-84
2023/06/03 02:25:32;;;;;;;;;0.00;0.00;;;;;-146.67;32.91;74705.53;5017616;28;61985;-85
2023/06/03 02:27:58;;;;;;;;;0.00;0.00;;;;;-146.67;33.01;74709.53;5002917;28;61768;-83
2023/06/03 02:30:24;;;;;;;;;17.75;11.75;;;;;-146.67;33.62;74739.50;5002837;28;62409;-85
2023/06/03 02:32:50;;;;;;;;;11.50;10.75;;;;;-146.67;33.40;74735.50;5002758;28;63841;-86
2023/06/03 02:35:15;;;;;;;;;16.75;11.25;;;;;-146.67;33.59;74735.50;5003154;28;62012;-85
2023/06/03 02:37:41;;;;;;;;;12.50;12.50;;;;;-146.67;33.86;74715.53;5013587;28;62194;-85
2023/06/03 02:40:09;;;;;;;;;0.00;0.00;;;;;-146.67;33.18;74703.56;5021521;28;62144;-84
2023/06/03 02:42:37;;;;;;;;;0.00;0.00;;;;;-146.67;33.01;74693.56;5019993;28;61899;-85
2023/06/03 02:45:02;;;;;;;;;0.00;0.00;;;;;-146.67;33.71;74705.53;5002977;28;61815;-84
2023/06/03 02:47:27;;;;;;;;;0.00;0.00;;;;;-146.67;33.09;74719.53;5002776;28;62044;-85
2023/06/03 02:49:53;;;;;;;;;19.50;12.25;;;;;-146.67;33.71;74723.50;4999219;28;62570;-84
2023/06/03 02:52:18;;;;;;;;;0.00;0.00;;;;;-146.67;33.44;74723.50;4992321;28;64710;-85
2023/06/03 02:54:44;;;;;;;;;11.75;11.75;;;;;-146.67;33.54;74717.53;5000430;28;61942;-85
2023/06/03 02:57:09;;;;;;;;;10.00;9.50;;;;;-146.67;33.62;74723.50;5018965;28;61832;-85
2023/06/03 02:59:34;;;;;;;;;6.75;6.75;;;;;-146.67;33.61;74727.50;5000153;28;61862;-85
2023/06/03 03:02:00;;;;;;;;;5.75;5.75;;;;;-146.67;33.75;74729.50;4989556;28;64673;-86
2023/06/03 03:04:26;;;;;;;;;0.00;0.00;;;;;-146.67;33.38;74729.50;5017829;28;62114;-84
2023/06/03 03:06:54;;;;;;;;;14.75;11.75;;;;;-146.67;33.70;74727.50;5018040;28;62516;-86
2023/06/03 03:09:19;;;;;;;;;0.00;0.00;;;;;-146.67;33.39;74727.50;5019091;28;61805;-85
2023/06/03 03:11:44;;;;;;;;;14.50;10.50;;;;;-146.67;33.64;74731.50;5017747;28;63001;-85
2023/06/03 03:14:10;;;;;;;;;14.25;11.50;;;;;-146.67;33.78;74741.50;5000614;28;61983;-86
2023/06/03 03:16:36;;;;;;;;;12.50;12.50;;;;;-146.67;33.75;74739.50;4991966;28;62036;-85
2023/06/03 03:19:01;;;;;;;;;15.75;12.00;;;;;-146.67;33.47;74737.50;5017700;28;61819;-85
2023/06/03 03:21:27;;;;;;;;;0.00;0.00;;;;;-146.67;33.57;74719.53;5019177;28;61889;-85
2023/06/03 03:23:52;;;;;;;;;13.50;12.00;;;;;-146.67;33.44;74715.53;5019834;28;62523;-85
2023/06/03 03:26:24;;;;;;;;;0.00;0.00;;;;;-146.67;33.43;74723.50;5022955;28;62114;-85
2023/06/03 03:28:52;;;;;;;;;17.00;11.00;;;;;-146.67;33.72;74729.50;5007359;28;62008;-85
2023/06/03 03:31:18;;;;;;;;;13.25;12.25;;;;;-146.67;33.65;74729.50;5029419;28;62257;-85
2023/06/03 03:33:43;;;;;;;;;14.25;11.50;;;;;-146.67;33.79;74725.50;5005127;28;62405;-85
2023/06/03 03:36:28;;;;;;;;;0.00;0.00;;;;;-146.67;33.39;74733.50;5021270;28;61887;-84
2023/06/03 03:39:02;;;;;;;;;8.50;6.25;;;;;-146.67;33.63;74729.50;5018186;28;62022;-85
2023/06/03 03:41:28;;;;;;;;;6.75;6.75;;;;;-146.67;33.62;74737.50;5020711;28;63481;-85
2023/06/03 03:43:53;;;;;;;;;13.00;11.50;;;;;-146.67;33.83;74753.47;4996610;28;61837;-84
2023/06/03 03:46:18;;;;;;;;;0.00;0.00;;;;;-146.67;33.83;74773.44;5003975;28;62419;-84
2023/06/03 03:48:47;;;;;;;;;10.50;10.50;;;;;-146.67;33.88;74775.44;5003839;28;61827;-85
2023/06/03 03:51:13;;;;;;;;;8.75;6.50;;;;;-146.67;34.00;74777.44;5000754;28;64095;-85
2023/06/03 03:53:43;;;;;;;;;18.00;14.25;;;;;-146.67;34.11;74779.41;5003932;28;62146;-85
2023/06/03 03:56:09;;;;;;;;;9.50;6.50;;;;;-146.67;34.09;74775.44;5020737;28;61742;-84
2023/06/03 03:58:42;;;;;;;;;0.00;0.00;;;;;-146.67;33.74;74777.44;5022252;28;62075;-85
2023/06/03 04:01:12;;;;;;;;;16.00;13.50;;;;;-146.67;33.97;74767.44;5022884;28;62034;-85
2023/06/03 04:03:40;;;;;;;;;18.25;12.50;;;;;-146.67;33.93;74763.44;5022006;28;62151;-87
2023/06/03 04:06:10;;;;;;;;;6.00;6.00;;;;;-146.67;33.74;74757.47;5005509;28;62041;-85
2023/06/03 04:08:46;;;;;;;;;14.25;12.00;;;;;-146.67;33.71;74757.47;5022569;28;62054;-86
2023/06/03 04:11:30;;;;;;;;;14.25;12.00;;;;;-146.67;33.71;74755.47;5003995;28;64160;-85
2023/06/03 04:13:58;;;;;;;;;11.50;11.50;;;;;-146.67;34.35;74779.41;5014167;28;61751;-85
2023/06/03 04:16:45;;;;;;;;;13.00;10.75;;;;;-146.67;33.99;74775.44;5004246;28;62039;-85
2023/06/03 04:19:18;;;;;;;;;0.00;0.00;;;;;-146.67;33.87;74747.47;5000417;28;62095;-85
2023/06/03 04:21:46;;;;;;;;;12.00;8.25;;;;;-146.67;33.86;74747.47;4998148;28;63454;-85
2023/06/03 04:24:11;;;;;;;;;20.00;15.50;;;;;-146.67;33.88;74747.47;5001297;28;61903;-85
2023/06/03 04:26:38;;;;;;;;;21.00;19.50;;;;;-146.67;34.11;74753.47;5002439;28;61898;-85
2023/06/03 04:29:04;;;;;;;;;27.25;17.75;;;;;-146.67;33.88;74749.47;5002903;28;61898;-86
2023/06/03 04:31:30;;;;;;;;;20.75;17.00;;;;;-146.67;34.00;74759.47;4999947;28;64001;-86
2023/06/03 04:33:55;;;;;;;;;14.75;12.25;;;;;-146.67;33.77;74751.47;5001903;28;61943;-86
2023/06/03 04:36:20;;;;;;;;;22.00;17.75;;;;;-146.67;34.03;74759.47;5000737;28;62470;-85
2023/06/03 04:38:47;;;;;;;;;12.50;9.50;;;;;-146.67;33.72;74747.47;5002386;28;61847;-86
2023/06/03 04:41:15;;;;;;;;;23.00;20.50;;;;;-146.67;33.98;74747.47;5000476;28;61849;-86
2023/06/03 04:43:43;;;;;;;;;0.00;0.00;;;;;-146.67;33.83;74745.47;5017540;28;61875;-86
2023/06/03 04:46:10;;;;;;;;;19.25;14.75;;;;;-146.67;33.98;74751.47;5003358;28;61852;-86
2023/06/03 04:48:36;;;;;;;;;30.00;19.50;;;;;-146.67;34.03;74747.47;5002236;28;61980;-86
2023/06/03 04:51:01;;;;;;;;;19.25;16.75;;;;;-146.67;33.86;74749.47;4995299;28;64828;-86
2023/06/03 04:53:28;;;;;;;;;17.00;14.50;;;;;-146.67;33.69;74747.47;5001001;28;61964;-86
2023/06/03 04:55:53;;;;;;;;;13.00;7.75;;;;;-146.67;33.86;74741.50;4998801;28;61843;-87
2023/06/03 04:58:19;;;;;;;;;18.25;16.00;;;;;-146.67;33.84;74733.50;4998950;28;61829;-86
2023/06/03 05:00:48;;;;;;;;;10.00;6.75;;;;;-146.67;33.35;74725.50;4997383;28;61895;-85
2023/06/03 05:03:16;;;;;;;;;15.25;11.50;;;;;-146.67;33.40;74717.53;5002231;28;61835;-85
2023/06/03 05:05:43;;;;;;;;;14.50;12.75;;;;;-146.67;33.49;74717.53;4999424;28;62166;-85
2023/06/03 05:08:12;;;;;;;;;0.00;0.00;;;;;-146.67;33.09;74705.53;5003450;28;62255;-85
2023/06/03 05:10:38;;;;;;;;;15.00;12.75;;;;;-146.67;33.47;74711.53;4998903;28;64054;-85
2023/06/03 05:13:06;;;;;;;;;16.25;12.25;;;;;-146.67;33.46;74707.53;5000150;28;61751;-86
2023/06/03 05:15:33;;;;;;;;;14.25;14.00;;;;;-146.67;33.35;74697.56;5000515;28;61924;-85
2023/06/03 05:18:02;;;;;;;;;11.50;10.25;;;;;-146.67;33.12;74689.56;5000175;28;61733;-85
2023/06/03 05:20:28;;;;;;;;;12.00;12.00;;;;;-146.67;32.91;74685.59;4998684;28;64621;-86
2023/06/03 05:22:53;;;;;;;;;15.50;12.00;;;;;-146.67;33.21;74669.63;5001268;28;61762;-85
2023/06/03 05:25:19;;;;;;;;;7.25;7.00;;;;;-146.67;32.73;74661.63;5001974;28;62119;-85
2023/06/03 05:27:45;;;;;;;;;13.00;10.25;;;;;-146.67;32.97;74647.66;4996622;28;62188;-86
2023/06/03 05:30:11;;;;;;;;;0.00;0.00;;;;;-146.67;32.56;74619.69;4999122;28;61921;-85
2023/06/03 05:32:36;;;;;;;;;8.75;6.00;;;;;-146.67;32.35;74595.75;5001060;28;62024;-85
2023/06/03 05:35:01;;;;;;;;;0.00;0.00;;;;;-146.67;32.03;74565.78;5001870;28;61781;-86
2023/06/03 05:37:27;;;;;;;;;0.00;0.00;;;;;-146.67;31.73;74489.94;5001018;28;61838;-86
2023/06/03 05:39:52;;;;;;;;;12.75;12.00;;;;;-146.67;31.12;74408.06;4997974;28;64635;-87
2023/06/03 05:42:17;;;;;;;;;6.50;5.25;;;;;-146.67;30.54;74352.19;5012276;28;61978;-87
2023/06/03 05:44:43;;;;;;;;;0.00;0.00;;;;;-146.67;30.03;74276.31;4999154;28;61856;-86
2023/06/03 05:47:08;;;;;;;;;11.50;11.00;;;;;-146.67;29.64;74220.41;4996163;28;62070;-85
2023/06/03 05:49:33;;;;;;;;;0.00;0.00;;;;;-146.67;29.54;74210.44;4993225;28;64824;-84
2023/06/03 05:51:59;;;;;;;;;0.00;0.00;;;;;-146.67;29.49;74214.44;4999752;28;62288;-86
2023/06/03 05:54:28;;;;;;;;;0.00;0.00;;;;;-146.67;29.29;74160.53;4998890;28;61907;-84
2023/06/03 05:56:57;;;;;;;;;0.00;0.00;;;;;-146.67;29.15;74180.50;5000445;28;61999;-85
2023/06/03 05:59:23;;;;;;;;;0.00;0.00;;;;;-146.67;29.15;74194.47;4997189;28;63010;-86
2023/06/03 06:01:48;;;;;;;;;0.00;0.00;;;;;-146.67;29.55;74220.41;4998706;28;62118;-87
2023/06/03 06:04:13;;;;;;;;;0.00;0.00;;;;;-146.67;29.62;74232.41;4999740;28;62665;-86
2023/06/03 06:06:39;;;;;;;;;0.00;0.00;;;;;-146.67;29.63;74254.34;5005845;28;61821;-86
2023/06/03 06:09:04;;;;;;;;;0.00;0.00;;;;;-146.67;29.76;74268.31;4998320;28;63792;-86
2023/06/03 06:11:29;;;;;;;;;0.00;0.00;;;;;-146.67;29.89;74280.31;4998641;28;61953;-87
2023/06/03 06:13:55;;;;;;;;;0.00;0.00;;;;;-146.67;29.77;74280.31;4999946;28;62164;-85
2023/06/03 06:16:20;;;;;;;;;0.00;0.00;;;;;-146.67;29.77;74276.31;4996766;28;61683;-85
2023/06/03 06:18:46;;;;;;;;;0.00;0.00;;;;;-146.67;29.83;74256.34;4999180;28;62031;-86
2023/06/03 06:21:11;;;;;;;;;0.00;0.00;;;;;-146.67;29.54;74204.44;4997885;28;61991;-86
2023/06/03 06:23:37;;;;;;;;;0.00;0.00;;;;;-146.67;28.59;74116.59;4998741;28;61794;-86
2023/06/03 06:26:02;;;;;;;;;0.00;0.00;;;;;-146.67;28.01;74010.81;4998519;28;62493;-87
2023/06/03 06:28:28;;;;;;;;;0.00;0.00;;;;;-146.67;27.77;74024.78;4997223;28;63561;-87
2023/06/03 06:31:01;;;;;;;;;0.00;0.00;;;;;-146.67;27.96;74028.78;5001649;28;62264;-87
2023/06/03 06:33:28;;;;;;;;;0.00;0.00;;;;;-146.67;28.07;74006.81;4997849;28;62155;-86
2023/06/03 06:35:54;;;;;;;;;0.00;0.00;;;;;-146.67;28.47;74058.72;5011689;28;62162;-87
2023/06/03 06:38:19;;;;;;;;;0.00;0.00;;;;;-146.67;28.60;74100.63;4997900;28;62645;-87
2023/06/03 06:40:45;;;;;;;;;0.00;0.00;;;;;-146.67;28.72;74132.56;5000506;28;61792;-86
2023/06/03 06:43:14;;;;;;;;;0.00;0.00;;;;;-146.67;28.92;74172.50;5000291;28;61882;-85
2023/06/03 06:45:39;;;;;;;;;0.33;0.33;;;;;-146.67;29.07;74206.44;4999516;28;61941;-86
2023/06/03 06:48:07;;;;;;;;;0.00;0.00;;;;;-146.67;29.43;74226.41;4996816;28;64022;-86
2023/06/03 06:50:50;;;;;;;;;0.00;0.00;;;;;-146.67;29.38;74234.38;4997019;28;61839;-84
2023/06/03 06:53:20;;;;;;;;;0.00;0.00;;;;;-146.67;29.42;74250.38;4998165;28;62001;-84
2023/06/03 06:55:55;;;;;;;;;0.00;0.00;;;;;-146.67;29.66;74260.34;5000276;28;62066;-84
2023/06/03 06:58:22;;;;;;;;;0.00;0.00;;;;;-146.67;29.67;74278.31;5002003;28;61971;-87
2023/06/03 07:00:49;;;;;;;;;0.00;0.00;;;;;-146.67;29.73;74296.28;4999472;28;62390;-84
2023/06/03 07:03:17;;;;;;;;;0.00;0.00;;;;;-146.67;29.89;74306.25;4994307;28;62075;-86
2023/06/03 07:05:43;;;;;;;;;0.00;0.00;;;;;-146.67;29.44;74302.25;5001316;28;62206;-89
2023/06/03 07:08:09;;;;;;;;;0.00;0.00;;;;;-146.67;29.67;74318.25;4998067;28;65064;-87
2023/06/03 07:10:35;;;;;;;;;0.00;0.00;;;;;-146.67;29.89;74332.22;5002605;28;62365;-87
2023/06/03 07:13:02;;;;;;;;;0.00;0.00;;;;;-146.67;29.85;74330.22;5001668;28;61796;-86
2023/06/03 07:15:28;;;;;;;;;0.00;0.00;;;;;-146.67;30.16;74338.19;5002490;28;61790;-86
2023/06/03 07:17:56;;;;;;;;;0.00;0.00;;;;;-146.67;30.10;74346.19;5002600;28;63239;-86
2023/06/03 07:20:29;;;;;;;;;0.00;0.00;;;;;-146.67;30.32;74346.19;5001221;28;61841;-82
2023/06/03 07:22:55;;;;;;;;;0.00;0.00;;;;;-146.67;30.24;74342.19;4999033;28;61931;-86
2023/06/03 07:25:33;;;;;;;;;0.00;0.00;;;;;-146.67;30.29;74348.19;5004444;28;61785;-85
2023/06/03 07:27:59;;;;;;;;;0.00;0.00;;;;;-146.67;30.37;74340.19;4993695;28;62087;-84
2023/06/03 07:30:26;;;;;;;;;0.00;0.00;;;;;-146.67;30.29;74336.19;5000443;28;61994;-85
2023/06/03 07:32:58;;;;;;;;;0.00;0.00;;;;;-146.67;30.06;74332.22;5001626;28;61749;-85
2023/06/03 07:35:24;;;;;;;;;0.00;0.00;;;;;-146.67;29.95;74326.22;4994272;28;62007;-79
2023/06/03 07:37:50;;;;;;;;;0.00;0.00;;;;;-146.67;30.12;74324.22;5000660;28;63255;-85
2023/06/03 07:40:16;;;;;;;;;0.00;0.00;;;;;-146.67;30.11;74322.22;5000003;28;61993;-86
2023/06/03 07:42:47;;;;;;;;;0.00;0.00;;;;;-146.67;30.17;74326.22;4997701;28;61982;-85
2023/06/03 07:45:14;;;;;;;;;0.00;0.00;;;;;-146.67;30.26;74326.22;4997989;28;61982;-84
2023/06/03 07:47:40;;;;;;;;;0.00;0.00;;;;;-146.67;30.38;74330.22;4995617;28;62813;-87
2023/06/03 07:50:26;;;;;;;;;0.00;0.00;;;;;-146.67;30.24;74326.22;4996652;28;62892;-84
2023/06/03 07:52:57;;;;;;;;;0.00;0.00;;;;;-146.67;30.40;74330.22;4997893;28;62198;-87
2023/06/03 07:55:23;;;;;;;;;0.00;0.00;;;;;-146.67;30.22;74328.22;5001109;28;62344;-87
2023/06/03 07:57:48;;;;;;;;;0.00;0.00;;;;;-146.67;30.17;74322.22;4999616;28;62321;-84
2023/06/03 08:00:17;;;;;;;;;0.00;0.00;;;;;-146.67;30.29;74320.22;4996829;28;61903;-83
2023/06/03 08:02:43;;;;;;;;;0.00;0.00;;;;;-146.67;29.97;74316.25;5000031;28;62109;-82
2023/06/03 08:05:09;;;;;;;;;0.00;0.00;;;;;-146.67;30.10;74316.25;4998949;28;62879;-85
2023/06/03 08:07:34;;;;;;;;;0.00;0.00;;;;;-146.67;30.40;74324.22;4994075;28;63687;-86
2023/06/03 08:10:00;;;;;;;;;0.00;0.00;;;;;-146.67;30.45;74326.22;4996468;28;62147;-85
2023/06/03 08:12:34;;;;;;;;;0.00;0.00;;;;;-146.67;30.43;74318.25;4999744;28;62030;-87
2023/06/03 08:15:01;;;;;;;;;0.00;0.00;;;;;-146.67;30.35;74310.25;4994356;28;62000;-87
2023/06/03 08:17:40;;;;;;;;;0.00;0.00;;;;;-146.67;30.29;74322.22;4995567;28;63070;-88
2023/06/03 08:20:09;;;;;;;;;0.00;0.00;;;;;-146.67;30.20;74312.25;5003002;28;61903;-88
2023/06/03 08:22:43;;;;;;;;;0.00;0.00;;;;;-146.67;29.79;74310.25;5021028;28;61952;-82
2023/06/03 08:25:09;;;;;;;;;0.00;0.00;;;;;-146.67;30.15;74294.28;5023033;28;61969;-82
2023/06/03 08:27:36;;;;;;;;;0.00;0.00;;;;;-146.67;30.05;74298.28;5021948;28;63405;-81
2023/06/03 08:30:03;;;;;;;;;0.00;0.00;;;;;-146.67;30.40;74302.25;5022886;28;62087;-81
2023/06/03 08:32:29;;;;;;;;;0.00;0.00;;;;;-146.67;30.16;74284.28;5005211;28;62225;-81
2023/06/03 08:34:55;;;;;;;;;0.00;0.00;;;;;-146.67;29.75;74286.28;5004549;28;61824;-86
2023/06/03 08:37:20;;;;;;;;;0.00;0.00;;;;;-146.67;30.26;74294.28;5019346;28;61868;-87
2023/06/03 08:39:47;;;;;;;;;9.75;8.50;;;;;-146.67;30.09;74288.28;5020677;28;61916;-86
2023/06/03 08:42:21;;;;;;;;;0.00;0.00;;;;;-146.67;30.17;74272.31;5022352;28;61954;-87
2023/06/03 08:45:05;;;;;;;;;0.00;0.00;;;;;-146.67;30.03;74272.31;5003846;28;61816;-87
2023/06/03 08:47:40;;;;;;;;;0.00;0.00;;;;;-146.67;30.19;74262.34;5021781;28;61878;-86
2023/06/03 08:50:10;;;;;;;;;0.00;0.00;;;;;-146.67;30.08;74250.38;5004412;28;61809;-86
2023/06/03 08:52:38;;;;;;;;;0.00;0.00;;;;;-146.67;30.21;74250.38;5022630;28;61957;-87
2023/06/03 08:55:11;;;;;;;;;0.00;0.00;;;;;-146.67;30.14;74240.38;5005552;28;61720;-87
2023/06/03 08:57:58;;;;;;;;;1.00;0.00;;;;;-146.67;29.78;74272.31;5023043;28;61772;-87
2023/06/03 09:00:26;;;;;;;;;0.00;0.00;;;;;-146.67;30.10;74264.34;5022114;28;61842;-87
2023/06/03 09:02:52;;;;;;;;;0.00;0.00;;;;;-146.67;30.05;74250.38;5022337;28;62064;-87
2023/06/03 09:05:19;;;;;;;;;0.00;0.00;;;;;-146.67;29.76;74250.38;5023936;28;61926;-86
2023/06/03 09:07:48;;;;;;;;;0.00;0.00;;;;;-146.67;29.79;74230.41;5022605;28;61881;-86
2023/06/03 09:10:18;;;;;;;;;0.00;0.00;;;;;-146.67;29.71;74210.44;5005299;28;61788;-86
2023/06/03 09:12:46;;;;;;;;;0.00;0.00;;;;;-146.67;29.80;74200.44;5023253;28;61806;-87
2023/06/03 09:15:14;;;;;;;;;0.00;0.00;;;;;-146.67;29.71;74196.47;5023627;28;61856;-88
2023/06/03 09:17:44;;;;;;;;;0.00;0.00;;;;;-146.67;28.97;74184.47;5000830;28;63998;-88
2023/06/03 09:20:11;;;;;;;;;0.00;0.00;;;;;-146.67;29.09;74170.50;5020727;28;62007;-88
2023/06/03 09:22:38;;;;;;;;;0.00;0.00;;;;;-146.67;29.21;74176.50;5020934;28;62042;-87
2023/06/03 09:25:04;;;;;;;;;0.00;0.00;;;;;-146.67;29.30;74156.53;5020797;28;61927;-88
2023/06/03 09:27:30;;;;;;;;;0.00;0.00;;;;;-146.67;29.12;74170.50;5002465;28;64120;-87
2023/06/03 09:29:56;;;;;;;;;0.00;0.00;;;;;-146.67;29.58;74160.53;5020836;28;61870;-88
2023/06/03 09:32:22;;;;;;;;;0.00;0.00;;;;;-146.67;28.91;74140.56;5003717;28;61824;-88
2023/06/03 09:34:48;;;;;;;;;0.00;0.00;;;;;-146.67;28.96;74142.56;5022258;28;62102;-86
2023/06/03 09:37:15;;;;;;;;;0.00;0.00;;;;;-146.67;28.84;74126.59;5020966;28;61917;-87
2023/06/03 09:39:40;;;;;;;;;0.00;0.00;;;;;-146.67;28.85;74124.59;5004214;28;62022;-87
2023/06/03 09:42:06;;;;;;;;;0.00;0.00;;;;;-146.67;28.19;74118.59;5021818;28;61838;-87
2023/06/03 09:44:45;;;;;;;;;0.00;0.00;;;;;-146.67;28.81;74112.63;5022769;28;62157;-88
2023/06/03 09:47:11;;;;;;;;;0.00;0.00;;;;;-146.67;28.60;74102.63;5020844;28;62122;-88
2023/06/03 09:49:37;;;;;;;;;0.00;0.00;;;;;-146.67;28.53;74088.66;5004516;28;61995;-86
2023/06/03 09:52:07;;;;;;;;;0.00;0.00;;;;;-146.67;28.58;74076.69;5003219;28;62037;-88
2023/06/03 09:54:32;;;;;;;;;0.00;0.00;;;;;-146.67;28.60;74068.69;5022646;28;61984;-88
2023/06/03 09:57:10;;;;;;;;;0.00;0.00;;;;;-146.67;28.38;74054.72;5021169;28;61983;-90
2023/06/03 09:59:35;;;;;;;;;0.00;0.00;;;;;-146.67;28.14;74050.72;5004911;28;61994;-90
2023/06/03 10:02:01;;;;;;;;;0.00;0.00;;;;;-146.67;28.38;74032.75;5004431;28;62249;-89
2023/06/03 10:04:39;;;;;;;;;0.00;0.00;;;;;-146.67;27.73;74026.78;5022974;28;61877;-90
2023/06/03 10:07:12;;;;;;;;;0.00;0.00;;;;;-146.67;27.87;74022.78;5021754;28;61965;-88
2023/06/03 10:09:38;;;;;;;;;0.00;0.00;;;;;-146.67;27.95;74006.81;5022750;28;61831;-88
2023/06/03 10:12:05;;;;;;;;;0.00;0.00;;;;;-146.67;28.07;73996.84;5022520;28;61844;-90
2023/06/03 10:14:30;;;;;;;;;0.00;0.00;;;;;-146.67;28.04;73984.84;5004144;28;62117;-90
2023/06/03 10:17:06;;;;;;;;;0.00;0.00;;;;;-146.67;27.97;73966.91;5020124;28;61970;-89
2023/06/03 10:19:33;;;;;;;;;0.00;0.00;;;;;-146.67;27.98;73956.91;5017691;28;61985;-87
2023/06/03 10:21:59;;;;;;;;;0.00;0.00;;;;;-146.67;27.81;73938.94;4996425;28;62048;-85
2023/06/03 10:24:27;;;;;;;;;0.00;0.00;;;;;-146.67;27.64;73932.97;5000004;28;62161;-88
2023/06/03 10:26:53;;;;;;;;;0.00;0.00;;;;;-146.67;27.49;73924.97;4999845;28;64203;-89
2023/06/03 10:29:20;;;;;;;;;0.00;0.00;;;;;-146.67;27.24;73909.00;5001408;28;61973;-84
2023/06/03 10:31:51;;;;;;;;;0.00;0.00;;;;;-146.67;27.48;73901.03;5003873;28;61884;-88
2023/06/03 10:34:17;;;;;;;;;0.00;0.00;;;;;-146.67;27.35;73889.03;5007151;28;61749;-89
2023/06/03 10:36:43;;;;;;;;;0.00;0.00;;;;;-146.67;27.57;73879.06;5004336;28;62701;-89
2023/06/03 10:39:11;;;;;;;;;0.00;0.00;;;;;-146.67;27.41;73873.06;5005417;28;61873;-88
2023/06/03 10:41:40;;;;;;;;;0.00;0.00;;;;;-146.67;26.99;73851.13;5004141;28;61785;-87
2023/06/03 10:44:05;;;;;;;;;0.00;0.00;;;;;-146.67;27.15;73849.13;5005424;28;62122;-88
2023/06/03 10:46:34;;;;;;;;;0.00;0.00;;;;;-146.67;27.31;73829.16;5002722;28;63585;-86
2023/06/03 10:49:04;;;;;;;;;0.00;0.00;;;;;-146.67;26.73;73813.19;5004835;28;61816;-87
2023/06/03 10:51:44;;;;;;;;;4.00;1.00;;;;;-146.67;26.47;73795.22;5003880;28;62054;-89
2023/06/03 10:54:33;;;;;;;;;0.00;0.00;;;;;-146.67;26.42;73787.25;5003958;28;62038;-89
2023/06/03 10:57:08;;;;;;;;;0.00;0.00;;;;;-146.67;26.49;73777.25;5004196;28;61837;-89
2023/06/03 10:59:45;;;;;;;;;0.00;0.00;;;;;-146.67;26.27;73757.31;5002546;28;61908;-86
2023/06/03 11:02:14;;;;;;;;;0.00;0.00;;;;;-146.67;26.14;73757.31;5002436;28;62044;-87
2023/06/03 11:04:40;;;;;;;;;0.00;0.00;;;;;-146.67;25.98;73731.34;5002031;28;61950;-84
2023/06/03 11:07:27;;;;;;;;;0.00;0.00;;;;;-146.67;25.59;73725.38;5000481;28;64049;-87
2023/06/03 11:09:54;;;;;;;;;0.00;0.00;;;;;-146.67;25.61;73709.41;5002126;28;62202;-83
2023/06/03 11:12:20;;;;;;;;;0.00;0.00;;;;;-146.67;25.56;73723.38;5001724;28;61870;-84
2023/06/03 11:14:48;;;;;;;;;0.00;0.00;;;;;-146.67;25.71;73695.41;5002241;28;61875;-83
2023/06/03 11:17:18;;;;;;;;;0.00;0.00;;;;;-146.67;25.09;73681.44;4999959;28;63730;-83